Longview, TX (75605)

6:31 AM CDT on September 16, 2014 (GMT -0500)
N8QVR - NW Longview | Change Station
CLOSE
Current Station
Personal Weather Station
Location: Longview, TX
Elevation: 465 ft
Nearby Weather Stations

Elev 465 ft 32.54 °N, 94.81 °W | Updated 1 second ago

Mostly Cloudy
Mostly Cloudy
72.7 °F
Feels Like 72.7 °F
N
0.0
Wind Variable Wind from East
Gusts 0.0 mph

Today
High -- | Low -- °F
--% Chance of Precip.
Yesterday
High -- | Low -- °F
Precip. -- in
7:03 AM 7:23 PM
Last Quarter, 46% visible
Pressure 30.08 in
Visibility 9.0 miles
Clouds Clear
Dew Point 70 °F
Humidity 91%
Rainfall 0.00 in
Snow Depth Not available.
UV 0.0 out of 12
Pollen 10.00 out of 12
Ozone Good
PM2.5 Good
Flu Activity Not available.
METAR KGGG 161053Z 04003KT 9SM CLR 23/21 A3010 RMK AO2 RAB29E39 SLP186 P0000 T02280206

More Conditions Fewer Conditions

Pressure 30.08 in
Visibility 9.0 miles
Clouds Clear
Dew Point 70 °F
Humidity 91%
Rainfall 0.00 in
Snow Depth Not available.
UV 0.0 out of 12
Pollen 10.00 out of 12
Ozone Good
PM2.5 Good
Flu Activity Not available.
METAR KGGG 161053Z 04003KT 9SM CLR 23/21 A3010 RMK AO2 RAB29E39 SLP186 P0000 T02280206

More Conditions Fewer Conditions

Nowcast | as of 5:28 am CDT on September 16, 2014

Scattered showers of light to brief moderate rain... will continue to move eastward near 25 mph across the region through the early to mid morning hours.

×

10-Day Weather Forecast

Almanac

Astronomy

Sep. 16, 2014 Rise Set
Actual Time 7:03 AM CDT 7:23 PM CDT
Civil Twilight 6:38 AM CDT 7:48 PM CDT
Nautical Twilight 6:10 AM CDT 8:17 PM CDT
Astronomical Twilight 5:40 AM CDT 8:46 PM CDT
Moon 12:28 AM CDT 2:34 PM CDT
Length of Visible Light 13h 09m
Length of Day
12h 20m
Tomorrow will be 1m 58s shorter.
Last Quarter, 46% of the Moon is Illuminated
Today
Last Quarter
Sep 24
New
Oct 1
First Quarter
Oct 8
Full
Oct 15
Last Quarter

Today's Extremes

State Highs State Lows

Community

WunderPhotos

Upload Photos

1,753,724 photos uploaded!

WunderBlogs® & News

By Dr. Jeff Masters
Director of Meteorology, Weather Underground
By Kari Strenfel
Meteorologist, Weather Underground
By Christopher C. Burt
Weather Historian, Weather Underground
September 16, 2014
September 16, 2014
September 16, 2014

Nearby

Air Quality

  Air Quality AQ Index Pollutant
Yesterday Good
PM2.5
Yesterday Good
OZONE
Current Good
PM2.5
Current Good
OZONE
Tuesday Good
OZONE
Tuesday Good
PM10
Wednesday Good
OZONE
Wednesday Good
PM10
Thursday Good
OZONE
Thursday Good
PM10

Snow Depth

Station Depth Elevation
No new snow has been reported.

Earthquake Activity

City Distance Mag. Time & Date
No recent earthquake activity has been reported nearby.
Minimum magnitude displayed is 2.5.

Coastal Water Temperatures

Place Temperature
No Stations Reporting

Nearby Weather Stations